Time;durP1;ratioP1;P1;durP2;ratioP2;P2;SDS_P1;SDS_P2;PMS_P1;PMS_P2;Temp;Humidity;BMP_temperature;BMP_pressure;BME280_temperature;BME280_humidity;BME280_pressure;Samples;Min_cycle;Max_cycle;Signal;HPM_P1;HPM_P2
2023/01/07 00:01:18;;;;;;;6.43;5.03;;;;;;;8.67;100.00;101555.41;5052795;28;20021;-71
2023/01/07 00:03:45;;;;;;;9.43;5.28;;;;;;;8.70;100.00;101555.19;5052847;28;20025;-70
2023/01/07 00:06:22;;;;;;;9.90;5.43;;;;;;;8.74;100.00;101554.00;5052609;28;20368;-71
2023/01/07 00:08:49;;;;;;;5.95;4.75;;;;;;;8.77;100.00;101551.97;5051552;28;20160;-71
2023/01/07 00:11:18;;;;;;;6.97;4.90;;;;;;;8.82;100.00;101554.28;5052732;28;20111;-70
2023/01/07 00:13:44;;;;;;;5.90;4.72;;;;;;;8.82;100.00;101551.63;5053375;28;20107;-70
2023/01/07 00:16:12;;;;;;;5.95;4.60;;;;;;;8.83;100.00;101543.56;5052560;28;20104;-71
2023/01/07 00:18:38;;;;;;;6.20;4.70;;;;;;;8.85;100.00;101543.44;5052816;28;20056;-71
2023/01/07 00:21:08;;;;;;;5.20;4.40;;;;;;;8.81;100.00;101542.00;5052582;28;20068;-71
2023/01/07 00:23:35;;;;;;;5.45;4.53;;;;;;;8.80;100.00;101541.13;5052371;28;20133;-73
2023/01/07 00:26:12;;;;;;;6.43;4.35;;;;;;;8.78;100.00;101542.22;5052236;28;20054;-71
2023/01/07 00:28:40;;;;;;;5.53;4.43;;;;;;;8.78;100.00;101540.41;5052628;28;20389;-71
2023/01/07 00:31:11;;;;;;;7.45;4.18;;;;;;;8.80;100.00;101543.78;5050719;28;20112;-71
2023/01/07 00:33:46;;;;;;;;;;;;;;;8.80;100.00;101542.94;5052963;28;20037;-70
2023/01/07 00:36:12;;;;;;;4.50;3.92;;;;;;;8.80;100.00;101535.00;5052492;28;19924;-71
2023/01/07 00:38:38;;;;;;;6.03;4.15;;;;;;;8.80;100.00;101538.47;5052292;28;20029;-71
2023/01/07 00:41:04;;;;;;;6.00;4.03;;;;;;;8.80;100.00;101527.88;5050419;28;20025;-71
2023/01/07 00:43:29;;;;;;;5.50;4.20;;;;;;;8.82;100.00;101523.31;5051637;28;20122;-71
2023/01/07 00:45:55;;;;;;;6.63;3.97;;;;;;;8.83;100.00;101525.00;5051713;28;20126;-71
2023/01/07 00:48:22;;;;;;;5.85;3.75;;;;;;;8.86;100.00;101520.44;5051798;28;20190;-71
2023/01/07 00:50:49;;;;;;;7.68;3.78;;;;;;;8.90;100.00;101517.44;5051017;28;20033;-71
2023/01/07 00:53:14;;;;;;;8.02;3.80;;;;;;;8.90;100.00;101516.63;5052013;28;20087;-71
2023/01/07 00:55:40;;;;;;;7.38;3.85;;;;;;;8.88;100.00;101513.19;5051788;28;20041;-70
2023/01/07 00:58:05;;;;;;;5.60;3.47;;;;;;;8.89;100.00;101507.78;5051488;28;20036;-71
2023/01/07 01:00:31;;;;;;;6.03;3.50;;;;;;;8.86;100.00;101510.66;5051025;28;20032;-70
2023/01/07 01:02:58;;;;;;;5.13;3.60;;;;;;;8.86;100.00;101505.34;5051415;28;20086;-70
2023/01/07 01:05:24;;;;;;;5.03;3.55;;;;;;;8.85;100.00;101500.16;5051153;28;20040;-72
2023/01/07 01:07:50;;;;;;;4.13;3.40;;;;;;;8.78;100.00;101487.34;5050950;28;20029;-72
2023/01/07 01:10:18;;;;;;;5.15;3.90;;;;;;;8.72;100.00;101487.78;5051474;28;20522;-70
2023/01/07 01:12:44;;;;;;;4.60;3.40;;;;;;;8.68;100.00;101486.31;5051549;28;20047;-71
2023/01/07 01:15:13;;;;;;;8.05;3.80;;;;;;;8.62;100.00;101489.41;5051031;28;20044;-71
2023/01/07 01:17:39;;;;;;;7.45;4.03;;;;;;;8.54;100.00;101468.75;5051203;28;20128;-71
2023/01/07 01:20:06;;;;;;;5.68;3.83;;;;;;;8.53;100.00;101471.50;5051120;28;20041;-71
2023/01/07 01:22:32;;;;;;;6.57;3.97;;;;;;;8.46;100.00;101479.03;5050913;28;20039;-71
2023/01/07 01:24:57;;;;;;;6.80;3.67;;;;;;;8.45;100.00;101466.75;5051017;28;20075;-71
2023/01/07 01:27:23;;;;;;;8.82;3.88;;;;;;;8.41;100.00;101481.16;5050848;28;20056;-71
2023/01/07 01:29:48;;;;;;;8.77;3.50;;;;;;;8.38;100.00;101473.41;5048981;28;20140;-71
2023/01/07 01:32:14;;;;;;;5.32;3.95;;;;;;;8.33;100.00;101470.22;5051143;28;20041;-71
2023/01/07 01:34:39;;;;;;;6.50;3.80;;;;;;;8.31;100.00;101470.34;5049289;28;20028;-72
2023/01/07 01:37:04;;;;;;;5.13;3.53;;;;;;;8.26;100.00;101467.19;5050622;28;20163;-71
2023/01/07 01:39:30;;;;;;;8.27;3.40;;;;;;;8.29;100.00;101462.50;5051141;28;20454;-71
2023/01/07 01:41:55;;;;;;;7.07;3.88;;;;;;;8.32;100.00;101458.78;5050576;28;20040;-70
2023/01/07 01:44:47;;;;;;;6.60;3.50;;;;;;;8.35;100.00;101463.03;5050590;28;20095;-70
2023/01/07 01:47:19;;;;;;;5.15;3.60;;;;;;;8.30;100.00;101471.31;5048292;28;20135;-72
2023/01/07 01:49:52;;;;;;;5.05;3.60;;;;;;;8.29;100.00;101462.50;5049228;28;20098;-71
2023/01/07 01:52:22;;;;;;;6.18;3.83;;;;;;;8.29;100.00;101464.31;5050570;28;20033;-71
2023/01/07 01:54:53;;;;;;;5.40;3.85;;;;;;;8.30;100.00;101468.66;5050872;28;20060;-71
2023/01/07 01:57:20;;;;;;;4.60;3.65;;;;;;;8.31;100.00;101470.34;5050360;28;20418;-71
2023/01/07 01:59:49;;;;;;;8.10;3.90;;;;;;;8.30;100.00;101461.56;5050399;28;20130;-71
2023/01/07 02:02:23;;;;;;;6.65;4.03;;;;;;;8.41;100.00;101470.53;5049870;28;20147;-71
2023/01/07 02:04:49;;;;;;;8.10;3.75;;;;;;;8.49;100.00;101459.41;5050750;28;20032;-71
2023/01/07 02:07:16;;;;;;;4.70;3.80;;;;;;;8.47;100.00;101452.41;5049862;28;20362;-71
2023/01/07 02:09:41;;;;;;;4.78;3.65;;;;;;;8.51;100.00;101452.19;5050160;28;20025;-71
2023/01/07 02:12:25;;;;;;;6.63;3.60;;;;;;;8.49;100.00;101446.16;5050363;28;20041;-71
2023/01/07 02:15:11;;;;;;;7.13;3.50;;;;;;;8.46;100.00;101441.91;5050229;28;20052;-70
2023/01/07 02:17:55;;;;;;;6.95;3.67;;;;;;;8.42;100.00;101438.63;5048495;28;20103;-70
2023/01/07 02:20:57;;;;;;;6.68;3.70;;;;;;;8.42;100.00;101449.22;5050145;28;20488;-72
2023/01/07 02:23:28;;;;;;;6.13;3.60;;;;;;;8.38;100.00;101447.75;5049852;28;20476;-71
2023/01/07 02:26:35;;;;;;;7.07;3.97;;;;;;;8.40;100.00;101445.81;5050106;28;20039;-71
2023/01/07 02:29:03;;;;;;;5.70;3.33;;;;;;;8.41;100.00;101444.03;5029982;28;20070;-69
2023/01/07 02:31:31;;;;;;;6.55;3.80;;;;;;;8.37;100.00;101445.19;5049324;28;20330;-71
2023/01/07 02:34:08;;;;;;;4.47;3.70;;;;;;;8.32;100.00;101442.03;5049291;28;20044;-72
2023/01/07 02:36:59;;;;;;;7.82;3.80;;;;;;;8.34;100.00;101442.78;5050034;28;20124;-71
2023/01/07 02:39:45;;;;;;;6.38;3.53;;;;;;;8.39;100.00;101441.50;5049728;28;20035;-70
2023/01/07 02:42:35;;;;;;;5.57;3.58;;;;;;;8.37;100.00;101443.38;5049817;28;20040;-70
2023/01/07 02:45:14;;;;;;;7.80;3.60;;;;;;;8.32;100.00;101432.28;5047827;28;20036;-71
2023/01/07 02:47:49;;;;;;;6.72;3.63;;;;;;;8.27;100.00;101434.38;5049527;28;20407;-70
2023/01/07 02:50:15;;;;;;;5.55;3.80;;;;;;;8.33;100.00;101430.47;5049319;28;20385;-71
2023/01/07 02:52:40;;;;;;;4.65;3.33;;;;;;;8.28;100.00;101422.84;5047747;28;20033;-71
2023/01/07 02:55:09;;;;;;;7.65;3.53;;;;;;;8.22;100.00;101431.22;5048445;28;20096;-70
2023/01/07 02:58:05;;;;;;;6.00;3.40;;;;;;;8.17;100.00;101428.91;5047725;28;20453;-70
2023/01/07 03:00:42;;;;;;;11.27;3.70;;;;;;;8.17;100.00;101436.03;5049517;28;20522;-71
2023/01/07 03:03:41;;;;;;;5.90;3.80;;;;;;;8.23;100.00;101417.88;5049417;28;20036;-71
2023/01/07 03:06:33;;;;;;;5.22;3.72;;;;;;;8.28;100.00;101422.84;5049593;28;20085;-71
2023/01/07 03:09:16;;;;;;;6.38;3.70;;;;;;;8.26;100.00;101422.94;5049821;28;20037;-72
2023/01/07 03:11:59;;;;;;;5.32;3.67;;;;;;;8.25;100.00;101420.41;5049215;28;20033;-71
2023/01/07 03:14:34;;;;;;;6.97;3.72;;;;;;;8.21;100.00;101410.97;5051518;28;20044;-72
2023/01/07 03:17:03;;;;;;;8.48;3.85;;;;;;;8.18;100.00;101420.00;5053350;28;20028;-70
2023/01/07 03:19:35;;;;;;;8.68;3.88;;;;;;;8.17;100.00;101412.16;5053222;28;20492;-71
2023/01/07 03:22:03;;;;;;;19.63;4.28;;;;;;;8.12;100.00;101407.16;5053268;28;20441;-71
2023/01/07 03:24:31;;;;;;;6.63;4.15;;;;;;;8.09;100.00;101408.25;5053487;28;20076;-70
2023/01/07 03:26:59;;;;;;;5.10;3.70;;;;;;;8.11;100.00;101401.03;5053618;28;20029;-71
2023/01/07 03:29:24;;;;;;;6.55;3.80;;;;;;;8.08;100.00;101398.59;5053906;28;20037;-71
2023/01/07 03:32:01;;;;;;;8.85;3.72;;;;;;;8.09;100.00;101397.66;5053570;28;20087;-72
2023/01/07 03:34:28;;;;;;;4.90;3.22;;;;;;;8.10;100.00;101398.50;5053501;28;20111;-71
2023/01/07 03:36:58;;;;;;;5.70;3.30;;;;;;;8.10;100.00;101394.03;5053507;28;20438;-71
2023/01/07 03:39:27;;;;;;;7.22;3.35;;;;;;;8.08;100.00;101393.31;5053329;28;20104;-71
2023/01/07 03:44:37;;;;;;;8.07;3.63;;;;;;;8.20;100.00;101382.78;5052815;28;20064;-71
2023/01/07 03:47:03;;;;;;;6.28;3.80;;;;;;;8.26;100.00;101379.69;5053313;28;20061;-70
2023/01/07 03:49:29;;;;;;;6.93;4.03;;;;;;;8.25;100.00;101372.69;5053032;28;20086;-70
2023/01/07 03:51:55;;;;;;;4.90;3.70;;;;;;;8.27;100.00;101374.28;5053162;28;20037;-72
2023/01/07 03:54:22;;;;;;;10.70;3.65;;;;;;;8.25;100.00;101373.53;5034777;28;20033;-72
2023/01/07 03:56:48;;;;;;;7.57;3.60;;;;;;;8.30;100.00;101373.22;5052407;28;20065;-71
2023/01/07 03:59:13;;;;;;;9.07;3.95;;;;;;;8.33;100.00;101377.44;5050957;28;20083;-71
2023/01/07 04:01:39;;;;;;;6.55;3.75;;;;;;;8.38;100.00;101362.88;5052664;28;20036;-71
2023/01/07 04:04:04;;;;;;;6.72;3.97;;;;;;;8.39;100.00;101366.38;5052868;28;20111;-71
2023/01/07 04:06:31;;;;;;;8.90;4.00;;;;;;;8.43;100.00;101365.19;5052189;28;20044;-71
2023/01/07 04:08:56;;;;;;;6.82;4.00;;;;;;;8.47;100.00;101374.66;5052417;28;20085;-72
2023/01/07 04:11:21;;;;;;;10.45;4.10;;;;;;;8.47;100.00;101354.28;5050779;28;20033;-71
2023/01/07 04:13:47;;;;;;;6.18;3.80;;;;;;;8.54;100.00;101351.19;5050818;28;20028;-71
2023/01/07 04:16:12;;;;;;;10.82;4.07;;;;;;;8.54;100.00;101354.69;5052344;28;20029;-71
2023/01/07 04:18:38;;;;;;;8.25;3.80;;;;;;;8.56;100.00;101349.28;5052411;28;20044;-71
2023/01/07 04:21:03;;;;;;;7.07;4.00;;;;;;;8.57;100.00;101343.00;5052440;28;20447;-71
2023/01/07 04:23:28;;;;;;;4.70;3.63;;;;;;;8.57;100.00;101340.34;5052330;28;20032;-71
2023/01/07 04:25:54;;;;;;;6.35;4.30;;;;;;;8.56;100.00;101342.16;5052065;28;20084;-71
2023/01/07 04:28:19;;;;;;;6.97;4.05;;;;;;;8.55;100.00;101339.63;5052224;28;20484;-71
2023/01/07 04:30:45;;;;;;;10.48;4.65;;;;;;;8.51;100.00;101340.78;5052079;28;20025;-71
2023/01/07 04:33:10;;;;;;;8.63;4.20;;;;;;;8.50;100.00;101339.13;5052253;28;20400;-71
2023/01/07 04:35:38;;;;;;;8.05;4.68;;;;;;;8.46;100.00;101338.47;5051587;28;20041;-71
2023/01/07 04:38:03;;;;;;;8.10;4.13;;;;;;;8.42;100.00;101332.53;5051965;28;20040;-71
2023/01/07 04:40:29;;;;;;;8.30;4.22;;;;;;;8.41;100.00;101330.00;5052787;28;20381;-70
2023/01/07 04:42:54;;;;;;;8.05;4.55;;;;;;;8.38;100.00;101327.56;5050835;28;20136;-72
2023/01/07 04:45:21;;;;;;;8.07;4.63;;;;;;;8.38;100.00;101317.81;5052664;28;20080;-72
2023/01/07 04:47:46;;;;;;;6.72;4.72;;;;;;;8.37;100.00;101325.88;5053622;28;20150;-71
2023/01/07 04:50:12;;;;;;;7.45;4.68;;;;;;;8.37;100.00;101321.41;5051877;28;20033;-70
2023/01/07 04:52:37;;;;;;;8.60;4.85;;;;;;;8.38;100.00;101312.50;5051300;28;20492;-71
2023/01/07 04:55:03;;;;;;;10.52;5.30;;;;;;;8.36;100.00;101305.63;5051878;28;20044;-71
2023/01/07 04:57:29;;;;;;;8.40;5.15;;;;;;;8.32;100.00;101320.09;5051504;28;20408;-70
2023/01/07 04:59:54;;;;;;;11.20;5.00;;;;;;;8.29;100.00;101297.28;5051243;28;20124;-72
2023/01/07 05:02:19;;;;;;;8.75;5.43;;;;;;;8.31;100.00;101300.66;5051506;28;20055;-72
2023/01/07 05:04:45;;;;;;;10.63;6.05;;;;;;;8.38;100.00;101293.09;5051055;28;20330;-71
2023/01/07 05:07:11;;;;;;;7.43;5.82;;;;;;;8.39;100.00;101290.34;5051602;28;20086;-71
2023/01/07 05:09:36;;;;;;;7.63;5.63;;;;;;;8.40;100.00;101292.00;5051045;28;20045;-71
2023/01/07 05:12:02;;;;;;;12.13;5.88;;;;;;;8.37;100.00;101292.25;5051617;28;20312;-71
2023/01/07 05:14:27;;;;;;;7.88;5.93;;;;;;;8.34;100.00;101281.88;5050858;28;20025;-72
2023/01/07 05:16:52;;;;;;;14.23;6.45;;;;;;;8.33;100.00;101282.84;5050936;28;20411;-71
2023/01/07 05:19:18;;;;;;;12.45;6.65;;;;;;;8.29;100.00;101287.50;5049415;28;20188;-71
2023/01/07 05:21:43;;;;;;;9.40;6.57;;;;;;;8.26;100.00;101287.75;5050965;28;20044;-72
2023/01/07 05:24:08;;;;;;;12.80;6.50;;;;;;;8.26;100.00;101282.44;5050972;28;20376;-71
2023/01/07 05:26:34;;;;;;;12.27;5.97;;;;;;;8.24;100.00;101286.16;5050971;28;20035;-72
2023/01/07 05:28:59;;;;;;;9.10;6.70;;;;;;;8.22;100.00;101280.97;5050862;28;20043;-71
2023/01/07 05:31:24;;;;;;;13.73;7.03;;;;;;;8.20;100.00;101282.91;5049485;28;20418;-72
2023/01/07 05:33:50;;;;;;;11.90;6.82;;;;;;;8.20;100.00;101290.84;5050460;28;20112;-72
2023/01/07 05:36:15;;;;;;;10.45;6.80;;;;;;;8.19;100.00;101280.34;5048947;28;20041;-71
2023/01/07 05:38:41;;;;;;;10.25;6.38;;;;;;;8.15;100.00;101276.22;5050876;28;20061;-71
2023/01/07 05:41:07;;;;;;;11.05;6.55;;;;;;;8.08;100.00;101267.91;5049159;28;20047;-72
2023/01/07 05:43:33;;;;;;;8.07;6.40;;;;;;;8.02;100.00;101271.84;5050660;28;20033;-72
2023/01/07 05:45:58;;;;;;;10.20;6.63;;;;;;;8.00;100.00;101270.25;5050114;28;20049;-72
2023/01/07 05:48:24;;;;;;;12.18;6.60;;;;;;;7.97;100.00;101259.88;5050488;28;20033;-72
2023/01/07 05:50:49;;;;;;;8.25;6.03;;;;;;;7.92;100.00;101261.03;5050270;28;20067;-71
2023/01/07 05:53:15;;;;;;;10.75;5.95;;;;;;;7.91;100.00;101253.22;5050954;28;20033;-71
2023/01/07 05:55:40;;;;;;;9.88;5.68;;;;;;;7.89;100.00;101253.31;5050371;28;20029;-70
2023/01/07 05:58:06;;;;;;;8.27;5.72;;;;;;;7.91;100.00;101248.78;5050328;28;20029;-71
2023/01/07 06:00:32;;;;;;;10.23;5.95;;;;;;;7.90;100.00;101244.44;5050421;28;20450;-72
2023/01/07 06:02:57;;;;;;;9.50;5.32;;;;;;;7.84;100.00;101236.94;5049932;28;20461;-72
2023/01/07 06:05:23;;;;;;;9.40;5.72;;;;;;;7.84;100.00;101236.94;5050809;28;20037;-72
2023/01/07 06:07:48;;;;;;;12.02;5.22;;;;;;;7.86;100.00;101239.47;5049817;28;20343;-71
2023/01/07 06:10:14;;;;;;;12.10;5.45;;;;;;;7.81;100.00;101229.22;5050619;28;20064;-71
2023/01/07 06:12:39;;;;;;;9.90;5.10;;;;;;;7.76;100.00;101241.91;5048778;28;20049;-71
2023/01/07 06:15:08;;;;;;;7.85;4.75;;;;;;;7.78;100.00;101234.72;5049903;28;20151;-71
2023/01/07 06:17:34;;;;;;;9.85;5.22;;;;;;;7.76;100.00;101221.59;5048687;28;20503;-71
2023/01/07 06:19:59;;;;;;;6.80;4.40;;;;;;;7.79;100.00;101217.84;5048283;28;20104;-71
2023/01/07 06:22:25;;;;;;;6.82;4.82;;;;;;;7.77;100.00;101217.97;5049652;28;20025;-71
2023/01/07 06:24:50;;;;;;;6.25;4.50;;;;;;;7.74;100.00;101215.53;5049860;28;20441;-72
2023/01/07 06:27:16;;;;;;;8.50;4.60;;;;;;;7.69;100.00;101212.41;5049723;28;20033;-71
2023/01/07 06:29:41;;;;;;;8.82;4.68;;;;;;;7.62;100.00;101207.66;5049520;28;20130;-72
2023/01/07 06:32:07;;;;;;;7.80;4.32;;;;;;;7.60;100.00;101199.81;5049850;28;20422;-71
2023/01/07 06:34:33;;;;;;;6.40;4.03;;;;;;;7.59;100.00;101200.78;5049393;28;20037;-71
2023/01/07 06:36:58;;;;;;;8.27;4.22;;;;;;;7.62;100.00;101197.91;5049614;28;20040;-72
2023/01/07 06:39:24;;;;;;;7.05;4.22;;;;;;;7.65;100.00;101196.84;5049773;28;20063;-71
2023/01/07 06:41:50;;;;;;;11.23;4.00;;;;;;;7.60;100.00;101194.53;5049787;28;20071;-72
2023/01/07 06:44:15;;;;;;;6.90;3.47;;;;;;;7.70;100.00;101194.69;5049221;28;20496;-70
2023/01/07 06:46:40;;;;;;;7.85;3.78;;;;;;;7.71;100.00;101191.09;5049567;28;20048;-70
2023/01/07 06:49:06;;;;;;;8.27;3.83;;;;;;;7.73;100.00;101205.94;5048510;28;20094;-70
2023/01/07 06:51:31;;;;;;;6.65;3.45;;;;;;;7.81;100.00;101200.06;5049748;28;20410;-70
2023/01/07 06:53:57;;;;;;;6.50;3.28;;;;;;;7.80;100.00;101194.88;5048152;28;20081;-71
2023/01/07 06:56:22;;;;;;;7.45;3.45;;;;;;;7.74;100.00;101186.41;5048064;28;20029;-70
2023/01/07 06:58:48;;;;;;;10.85;3.55;;;;;;;7.68;100.00;101191.31;5049975;28;20025;-71
2023/01/07 07:01:13;;;;;;;6.43;3.40;;;;;;;7.71;100.00;101196.41;5049673;28;20032;-70
2023/01/07 07:03:38;;;;;;;7.68;3.10;;;;;;;7.76;100.00;101181.84;5049476;28;20032;-71
2023/01/07 07:06:04;;;;;;;5.25;3.13;;;;;;;7.80;100.00;101168.38;5048161;28;20033;-71
2023/01/07 07:08:30;;;;;;;8.60;2.92;;;;;;;7.88;100.00;101187.19;5047577;28;20047;-71
2023/01/07 07:10:55;;;;;;;9.20;3.42;;;;;;;7.94;100.00;101179.66;5047845;28;20430;-70
2023/01/07 07:13:20;;;;;;;4.38;2.58;;;;;;;8.01;100.00;101176.56;5049502;28;20477;-70
2023/01/07 07:15:46;;;;;;;3.60;2.50;;;;;;;8.05;100.00;101175.38;5049131;28;20028;-71
2023/01/07 07:18:11;;;;;;;7.53;2.63;;;;;;;8.05;100.00;101170.91;5047669;28;20446;-71
2023/01/07 07:20:37;;;;;;;5.93;2.75;;;;;;;8.08;100.00;101165.38;5048864;28;20037;-71
2023/01/07 07:23:02;;;;;;;8.35;2.83;;;;;;;8.12;100.00;101164.19;5048879;28;20498;-70
2023/01/07 07:25:28;;;;;;;4.03;2.20;;;;;;;8.18;100.00;101162.88;5049262;28;20454;-71
2023/01/07 07:27:54;;;;;;;4.32;2.20;;;;;;;8.22;100.00;101160.84;5049173;28;20170;-77
2023/01/07 07:30:19;;;;;;;4.95;2.30;;;;;;;8.22;100.00;101152.88;5049421;28;20461;-72
2023/01/07 07:32:45;;;;;;;5.10;2.38;;;;;;;8.26;100.00;101146.41;5049234;28;20422;-71
2023/01/07 07:35:11;;;;;;;4.43;1.92;;;;;;;8.29;100.00;101147.00;5049061;28;20029;-70
2023/01/07 07:37:37;;;;;;;3.28;2.08;;;;;;;8.30;100.00;101158.47;5048862;28;20040;-71
2023/01/07 07:40:04;;;;;;;4.45;1.92;;;;;;;8.33;100.00;101144.97;5048427;28;20029;-70
2023/01/07 07:42:29;;;;;;;7.93;2.00;;;;;;;8.36;100.00;101151.81;5049185;28;20033;-71
2023/01/07 07:44:55;;;;;;;2.22;1.90;;;;;;;8.35;100.00;101147.50;5031182;28;20033;-71
2023/01/07 07:47:20;;;;;;;3.25;1.90;;;;;;;8.36;100.00;101125.31;5049179;28;20056;-71
2023/01/07 07:49:46;;;;;;;3.40;1.70;;;;;;;8.40;100.00;101127.59;5048349;28;20448;-71
2023/01/07 07:52:11;;;;;;;3.13;1.60;;;;;;;8.39;100.00;101112.69;5049914;28;20303;-71
2023/01/07 07:54:36;;;;;;;5.13;1.77;;;;;;;8.41;100.00;101116.06;5049385;28;20072;-71
2023/01/07 07:57:02;;;;;;;2.97;1.88;;;;;;;8.41;100.00;101112.56;5049116;28;20397;-72
2023/01/07 07:59:28;;;;;;;2.72;1.73;;;;;;;8.42;100.00;101112.44;5049661;28;20025;-72
2023/01/07 08:01:54;;;;;;;5.43;1.95;;;;;;;8.42;100.00;101115.09;5053234;28;20465;-71
2023/01/07 08:04:19;;;;;;;6.95;1.90;;;;;;;8.41;100.00;101110.75;5052722;28;20048;-71
2023/01/07 08:06:44;;;;;;;2.13;1.67;;;;;;;8.44;100.00;101115.84;5053365;28;20120;-71
2023/01/07 08:09:10;;;;;;;4.53;1.70;;;;;;;8.45;100.00;101117.53;5051473;28;20040;-71
2023/01/07 08:11:35;;;;;;;3.03;1.50;;;;;;;8.43;100.00;101114.16;5053112;28;20067;-72
2023/01/07 08:14:01;;;;;;;3.58;1.50;;;;;;;8.52;100.00;101119.72;5052800;28;20124;-72
2023/01/07 08:16:26;;;;;;;3.33;1.85;;;;;;;8.59;100.00;101115.63;5052922;28;20221;-70
2023/01/07 08:18:52;;;;;;;4.60;1.85;;;;;;;8.62;100.00;101112.72;5053103;28;20432;-71
2023/01/07 08:21:17;;;;;;;4.35;1.65;;;;;;;8.63;100.00;101111.78;5052879;28;20060;-71
2023/01/07 08:23:42;;;;;;;2.38;1.60;;;;;;;8.75;100.00;101107.31;5052630;28;20036;-70
2023/01/07 08:26:08;;;;;;;2.88;1.75;;;;;;;8.74;100.00;101119.72;5052389;28;20029;-70
2023/01/07 08:28:33;;;;;;;4.07;1.50;;;;;;;8.75;100.00;101102.84;5052041;28;20033;-71
2023/01/07 08:31:06;;;;;;;3.63;1.42;;;;;;;8.71;100.00;101104.06;5052683;28;20496;-71
2023/01/07 08:33:36;;;;;;;2.53;1.50;;;;;;;8.70;100.00;101114.78;5052957;28;20025;-71
2023/01/07 08:36:03;;;;;;;3.83;1.65;;;;;;;8.67;100.00;101104.41;5052410;28;20509;-71
2023/01/07 08:38:30;;;;;;;3.05;1.70;;;;;;;8.68;100.00;101106.94;5052749;28;20029;-71
2023/01/07 08:40:56;;;;;;;3.30;1.50;;;;;;;8.70;100.00;101104.16;5051258;28;20029;-71
2023/01/07 08:43:22;;;;;;;2.78;1.60;;;;;;;8.69;100.00;101105.13;5050758;28;20423;-72
2023/01/07 08:45:49;;;;;;;2.40;1.60;;;;;;;8.68;100.00;101109.59;5052294;28;20361;-72
2023/01/07 08:48:14;;;;;;;4.20;1.58;;;;;;;8.74;100.00;101106.47;5052916;28;20033;-70
2023/01/07 08:50:40;;;;;;;4.45;1.70;;;;;;;8.78;100.00;101097.31;5052556;28;20075;-71
2023/01/07 08:53:05;;;;;;;2.20;1.65;;;;;;;8.78;100.00;101104.44;5052245;28;20367;-76
2023/01/07 08:55:30;;;;;;;3.75;2.10;;;;;;;8.82;100.00;101092.59;5051802;28;20110;-71
2023/01/07 08:57:56;;;;;;;5.28;2.55;;;;;;;8.87;100.00;101105.47;5050252;28;20499;-71
2023/01/07 09:00:21;;;;;;;3.17;1.60;;;;;;;8.88;100.00;101091.25;5051803;28;20025;-73
2023/01/07 09:02:47;;;;;;;2.28;1.45;;;;;;;8.90;100.00;101116.72;5051646;28;20102;-73
2023/01/07 09:05:13;;;;;;;3.70;1.48;;;;;;;8.97;100.00;101093.19;5052106;28;20322;-70
2023/01/07 09:07:38;;;;;;;2.45;1.42;;;;;;;8.97;100.00;101082.56;5050170;28;20052;-71
2023/01/07 09:10:04;;;;;;;3.20;1.77;;;;;;;8.94;100.00;101082.81;5051957;28;20036;-70
2023/01/07 09:12:30;;;;;;;2.10;1.38;;;;;;;8.96;100.00;101065.81;5051296;28;20085;-72
2023/01/07 09:14:56;;;;;;;3.45;1.52;;;;;;;8.95;100.00;101076.53;5051535;28;20064;-70
2023/01/07 09:17:22;;;;;;;1.98;1.55;;;;;;;8.95;100.00;101069.41;5051714;28;20025;-71
2023/01/07 09:19:47;;;;;;;1.80;1.30;;;;;;;8.98;100.00;101065.69;5051301;28;20066;-71
2023/01/07 09:22:12;;;;;;;4.00;1.27;;;;;;;8.96;100.00;101049.06;5051534;28;20102;-71
2023/01/07 09:24:38;;;;;;;3.28;1.30;;;;;;;8.96;100.00;101057.00;5051446;28;20119;-70
2023/01/07 09:27:04;;;;;;;2.53;1.30;;;;;;;8.98;100.00;101042.63;5051677;28;20025;-70
2023/01/07 09:29:29;;;;;;;6.32;1.40;;;;;;;8.99;100.00;101040.84;5050086;28;20029;-71
2023/01/07 09:31:54;;;;;;;3.33;1.13;;;;;;;9.02;100.00;101029.09;5051084;28;20089;-76
2023/01/07 09:34:20;;;;;;;4.28;1.45;;;;;;;9.05;100.00;101042.16;5051522;28;20077;-71
2023/01/07 09:36:45;;;;;;;1.38;1.10;;;;;;;9.08;100.00;101039.25;5051255;28;20385;-71
2023/01/07 09:39:11;;;;;;;1.50;1.10;;;;;;;9.11;100.00;101026.56;5051174;28;20051;-74
2023/01/07 09:42:18;;;;;;;1.63;1.17;;;;;;;9.15;100.00;101016.53;5051324;28;20413;-72
2023/01/07 09:44:49;;;;;;;3.83;1.42;;;;;;;9.16;100.00;101018.22;5031265;28;20033;-72
2023/01/07 09:47:18;;;;;;;2.00;1.65;;;;;;;9.21;100.00;101009.88;5050371;28;20202;-72
2023/01/07 09:49:46;;;;;;;4.38;1.20;;;;;;;9.23;100.00;101002.66;5050692;28;20450;-69
2023/01/07 09:52:28;;;;;;;2.15;1.40;;;;;;;9.23;100.00;100998.16;5050645;28;20029;-76
2023/01/07 09:55:01;;;;;;;1.98;1.15;;;;;;;9.25;100.00;101003.34;5051306;28;20040;-71
2023/01/07 09:57:27;;;;;;;1.05;1.05;;;;;;;9.32;100.00;100992.09;5051065;28;20037;-70
2023/01/07 09:59:52;;;;;;;1.60;1.30;;;;;;;9.34;100.00;100987.50;5050650;28;20350;-72
2023/01/07 10:03:03;;;;;;;1.42;1.10;;;;;;;9.37;100.00;100985.56;5049029;28;20120;-72
2023/01/07 10:05:37;;;;;;;3.03;1.27;;;;;;;9.45;100.00;100991.06;5048619;28;20155;-71
2023/01/07 10:08:24;;;;;;;4.65;1.30;;;;;;;9.55;100.00;100975.22;5051010;28;20032;-71
2023/01/07 10:11:01;;;;;;;1.35;1.08;;;;;;;9.61;100.00;100966.72;5050306;28;20053;-72
2023/01/07 10:13:32;;;;;;;1.23;1.13;;;;;;;9.67;100.00;100969.72;5050217;28;20166;-71
2023/01/07 10:16:06;;;;;;;1.13;1.08;;;;;;;9.73;100.00;100970.16;5050853;28;20041;-72
2023/01/07 10:18:37;;;;;;;2.63;1.27;;;;;;;9.81;100.00;100965.88;5050601;28;20033;-72
2023/01/07 10:21:26;;;;;;;1.88;1.10;;;;;;;9.94;100.00;100946.22;5048792;28;20040;-73
2023/01/07 10:24:02;;;;;;;5.88;1.38;;;;;;;9.89;100.00;100939.47;5050250;28;20035;-74
2023/01/07 10:26:36;;;;;;;3.60;1.38;;;;;;;9.99;100.00;100952.81;5050625;28;20032;-72
2023/01/07 10:29:11;;;;;;;1.20;0.88;;;;;;;9.95;100.00;100947.91;5050388;28;20040;-72
2023/01/07 10:31:37;;;;;;;1.42;1.02;;;;;;;9.95;100.00;100926.63;5049986;28;20037;-72
2023/01/07 10:34:12;;;;;;;1.50;1.00;;;;;;;9.96;100.00;100923.84;5050059;28;20484;-70
2023/01/07 10:36:45;;;;;;;1.73;1.23;;;;;;;10.07;100.00;100909.63;5049838;28;20032;-72
2023/01/07 10:39:31;;;;;;;1.20;1.10;;;;;;;9.97;100.00;100927.34;5049818;28;20079;-71
2023/01/07 10:42:09;;;;;;;2.70;1.45;;;;;;;9.99;100.00;100896.16;5049780;28;20169;-73
2023/01/07 10:44:55;;;;;;;3.28;1.17;;;;;;;9.93;100.00;100894.03;5048356;28;20033;-70
2023/01/07 10:47:43;;;;;;;1.33;1.02;;;;;;;9.97;100.00;100893.66;5049956;28;20045;-70
2023/01/07 10:50:27;;;;;;;1.42;0.90;;;;;;;10.06;100.00;100891.97;5049932;28;20029;-71
2023/01/07 10:53:21;;;;;;;3.08;1.25;;;;;;;10.11;100.00;100873.00;5049880;28;20047;-71
2023/01/07 10:56:25;;;;;;;1.73;1.00;;;;;;;10.21;100.00;100874.69;5049876;28;20128;-69
2023/01/07 10:58:50;;;;;;;1.80;1.08;;;;;;;10.32;100.00;100863.09;5048398;28;20044;-71
2023/01/07 11:01:30;;;;;;;2.15;1.10;;;;;;;10.31;100.00;100857.91;5049286;28;20029;-71
2023/01/07 11:03:58;;;;;;;0.82;0.82;;;;;;;10.32;100.00;100839.16;5049281;28;20029;-72
2023/01/07 11:06:43;;;;;;;2.15;1.00;;;;;;;10.33;100.00;100837.31;5049501;28;20048;-70
2023/01/07 11:09:19;;;;;;;1.10;0.93;;;;;;;10.26;100.00;100850.34;5049652;28;20045;-72
2023/01/07 11:11:46;;;;;;;2.75;1.00;;;;;;;10.21;100.00;100833.94;5049311;28;20465;-72
2023/01/07 11:14:19;;;;;;;2.22;0.98;;;;;;;10.21;100.00;100826.81;5049969;28;20132;-72
2023/01/07 11:17:04;;;;;;;0.82;0.80;;;;;;;10.32;100.00;100835.66;5049591;28;20107;-71
2023/01/07 11:19:43;;;;;;;1.63;1.00;;;;;;;10.31;100.00;100821.50;5048266;28;20345;-71
2023/01/07 11:22:32;;;;;;;1.77;1.10;;;;;;;10.28;100.00;100829.75;5049238;28;20071;-71
2023/01/07 11:24:59;;;;;;;1.45;0.80;;;;;;;10.31;100.00;100810.88;5049309;28;20025;-70
2023/01/07 11:27:30;;;;;;;1.35;0.98;;;;;;;10.19;100.00;100812.81;5048813;28;20108;-75
2023/01/07 11:30:01;;;;;;;1.17;0.80;;;;;;;10.12;100.00;100817.03;5049133;28;20487;-71
2023/01/07 11:32:30;;;;;;;0.90;0.90;;;;;;;10.17;100.00;100804.16;5047824;28;20029;-73
2023/01/07 11:34:58;;;;;;;1.00;0.90;;;;;;;10.16;100.00;100789.16;5050560;28;20446;-71
2023/01/07 11:37:38;;;;;;;1.20;1.10;;;;;;;10.12;100.00;100784.25;5053109;28;20487;-71